Time;durP1;ratioP1;P1;durP2;ratioP2;P2;SDS_P1;SDS_P2;PMS_P1;PMS_P2;Temp;Humidity;BMP_temperature;BMP_pressure;BME280_temperature;BME280_humidity;BME280_pressure;Samples;Min_cycle;Max_cycle;Signal;HPM_P1;HPM_P2
2021/09/23 00:00:28;;;;;;;19.90;6.70;;;;;;;12.48;93.64;101176.36;5233703;56;21154;-80
2021/09/23 00:05:36;;;;;;;14.17;6.87;;;;;;;12.45;94.29;101168.63;5233707;56;21162;-82
2021/09/23 00:10:43;;;;;;;12.33;5.97;;;;;;;12.41;94.18;101154.74;5234234;56;21159;-81
2021/09/23 00:15:50;;;;;;;23.27;6.03;;;;;;;12.39;94.48;101154.00;5227661;56;21175;-81
2021/09/23 00:20:57;;;;;;;16.70;6.40;;;;;;;12.37;94.31;101144.50;5202050;56;22733;-82
2021/09/23 00:26:03;;;;;;;13.13;6.90;;;;;;;12.32;94.34;101128.92;5165941;57;21120;-80
2021/09/23 00:31:09;;;;;;;13.03;6.87;;;;;;;12.31;94.14;101143.98;5166582;57;21159;-81
2021/09/23 00:36:16;;;;;;;20.83;6.43;;;;;;;12.28;94.17;101143.36;5193509;56;21121;-82
2021/09/23 00:41:23;;;;;;;15.27;5.63;;;;;;;12.29;94.15;101145.05;5212424;56;21109;-81
2021/09/23 00:46:29;;;;;;;17.33;7.07;;;;;;;12.30;94.23;101128.19;5212314;56;21524;-81
2021/09/23 00:51:35;;;;;;;15.10;6.30;;;;;;;12.26;94.31;101135.52;5212859;56;21177;-79
2021/09/23 00:56:41;;;;;;;9.53;4.80;;;;;;;12.24;94.35;101126.83;5213092;56;21109;-79
2021/09/23 01:01:47;;;;;;;15.60;6.40;;;;;;;12.17;95.36;101131.39;5212014;56;21180;-80
2021/09/23 01:06:55;;;;;;;10.90;4.90;;;;;;;12.17;95.42;101116.33;5212674;56;21185;-82
2021/09/23 01:12:01;;;;;;;15.47;5.20;;;;;;;12.16;94.78;101113.79;5212885;56;22447;-81
2021/09/23 01:17:07;;;;;;;16.87;6.13;;;;;;;12.12;95.48;101122.92;5212874;56;21177;-82
2021/09/23 01:22:17;;;;;;;10.43;4.87;;;;;;;12.08;94.94;101110.36;5228954;56;21148;-81
2021/09/23 01:27:39;;;;;;;14.27;6.00;;;;;;;12.07;94.81;101107.34;4979456;58;21282;-80
2021/09/23 01:32:47;;;;;;;14.57;4.93;;;;;;;12.07;94.92;101102.05;4898287;60;21246;-80
2021/09/23 01:37:54;;;;;;;16.77;5.40;;;;;;;12.05;95.49;101104.47;4859049;61;21218;-80
2021/09/23 01:43:00;;;;;;;20.07;4.57;;;;;;;12.03;95.21;101098.43;4821308;61;21347;-81
2021/09/23 01:48:07;;;;;;;18.47;4.90;;;;;;;12.01;95.15;101095.05;5018009;58;22436;-80
2021/09/23 01:53:14;;;;;;;15.77;5.07;;;;;;;12.02;94.96;101075.53;4897366;60;21305;-80
2021/09/23 01:58:20;;;;;;;13.60;4.13;;;;;;;11.96;95.55;101060.44;5019968;58;21190;-80
2021/09/23 02:03:28;;;;;;;17.93;5.43;;;;;;;11.96;95.18;101059.59;5096595;58;21167;-80
2021/09/23 02:08:47;;;;;;;11.60;3.67;;;;;;;11.90;94.96;101049.47;5223429;56;21723;-80
2021/09/23 02:13:54;;;;;;;14.57;4.20;;;;;;;11.83;95.32;101041.11;5017299;59;21512;-80
2021/09/23 02:19:00;;;;;;;11.93;3.90;;;;;;;11.80;94.82;101040.01;5016890;59;21194;-81
2021/09/23 02:24:07;;;;;;;17.07;4.57;;;;;;;11.72;95.27;101017.19;5127158;57;21182;-80
2021/09/23 02:29:13;;;;;;;19.60;4.93;;;;;;;11.70;95.77;101016.94;5160841;57;21189;-81
2021/09/23 02:34:19;;;;;;;17.13;5.73;;;;;;;11.70;95.30;101015.61;5141094;57;21184;-80
2021/09/23 02:39:26;;;;;;;21.17;5.27;;;;;;;11.68;95.12;101000.30;4940796;59;21598;-80
2021/09/23 02:44:32;;;;;;;12.10;3.33;;;;;;;11.66;95.46;100998.23;5020229;59;21531;-80
2021/09/23 02:49:38;;;;;;;20.03;5.40;;;;;;;11.64;95.88;100990.41;4936977;60;21210;-81
2021/09/23 02:54:44;;;;;;;18.67;4.90;;;;;;;11.62;95.40;100967.15;4936878;60;21286;-80
2021/09/23 02:59:51;;;;;;;17.97;4.47;;;;;;;11.63;95.41;100954.27;4936867;60;21219;-81
2021/09/23 03:04:57;;;;;;;12.30;4.07;;;;;;;11.63;95.26;100946.32;4936838;60;21246;-81
2021/09/23 03:10:05;;;;;;;20.57;5.03;;;;;;;11.63;95.37;100939.22;4936325;60;21182;-80
2021/09/23 03:15:11;;;;;;;26.50;6.27;;;;;;;11.62;95.07;100925.61;4935806;60;21202;-81
2021/09/23 03:20:21;;;;;;;18.10;4.50;;;;;;;11.61;95.13;100914.64;4935520;60;21494;-81
2021/09/23 03:25:25;;;;;;;25.70;4.73;;;;;;;11.60;95.64;100910.33;4902621;59;21195;-81
2021/09/23 03:30:32;;;;;;;10.93;4.40;;;;;;;11.55;95.44;100910.30;5113196;58;21121;-81
2021/09/23 03:35:38;;;;;;;18.03;5.00;;;;;;;11.54;95.33;100901.99;5126408;57;21204;-81
2021/09/23 03:40:45;;;;;;;19.67;3.90;;;;;;;11.51;95.35;100904.86;5142655;57;21243;-80
2021/09/23 03:45:53;;;;;;;14.50;4.13;;;;;;;11.47;95.51;100887.03;5143033;57;21182;-81
2021/09/23 03:50:59;;;;;;;12.53;3.43;;;;;;;11.48;95.70;100878.60;5143474;57;21164;-79
2021/09/23 03:56:12;;;;;;;19.50;4.27;;;;;;;11.44;95.97;100870.06;5143014;57;21184;-79
2021/09/23 04:01:16;;;;;;;15.73;4.10;;;;;;;11.40;95.77;100877.02;5142449;57;21193;-79
2021/09/23 04:06:22;;;;;;;18.17;5.10;;;;;;;11.36;95.87;100883.02;5141515;57;21180;-81
2021/09/23 04:11:28;;;;;;;17.60;4.23;;;;;;;11.34;95.60;100886.27;5141418;57;21642;-81
2021/09/23 04:16:35;;;;;;;16.23;4.43;;;;;;;11.31;95.63;100863.98;5141810;57;21181;-80
2021/09/23 04:21:42;;;;;;;13.00;3.73;;;;;;;11.30;95.60;100870.27;5142682;57;21176;-80
2021/09/23 04:26:50;;;;;;;20.90;5.37;;;;;;;11.29;95.46;100857.98;5176135;57;21306;-81
2021/09/23 04:31:56;;;;;;;13.07;4.30;;;;;;;11.25;95.38;100868.43;5178004;57;21180;-80
2021/09/23 04:37:03;;;;;;;11.33;3.97;;;;;;;11.24;95.26;100872.03;5181361;57;21139;-79
2021/09/23 04:42:09;;;;;;;16.37;5.17;;;;;;;11.25;95.17;100863.14;5181483;57;21116;-79
2021/09/23 04:47:15;;;;;;;14.73;4.20;;;;;;;11.24;95.26;100864.94;5180376;57;21120;-81
2021/09/23 04:52:21;;;;;;;14.43;4.20;;;;;;;11.22;94.90;100859.39;5180866;57;21271;-81
2021/09/23 04:57:26;;;;;;;17.50;3.80;;;;;;;11.20;95.01;100853.36;5181739;57;21179;-81
2021/09/23 05:02:34;;;;;;;17.73;5.07;;;;;;;11.21;95.20;100844.45;5180767;57;21195;-80
2021/09/23 05:07:40;;;;;;;17.60;5.00;;;;;;;11.21;95.25;100831.22;5181744;57;21184;-80
2021/09/23 05:12:46;;;;;;;17.67;4.50;;;;;;;11.22;95.35;100822.32;5182148;57;21215;-80
2021/09/23 05:17:52;;;;;;;16.70;5.07;;;;;;;11.24;95.44;100817.28;5181953;57;21187;-80
2021/09/23 05:22:58;;;;;;;15.37;5.00;;;;;;;11.21;95.87;100817.98;5183299;56;21183;-79
2021/09/23 05:28:04;;;;;;;15.60;4.87;;;;;;;11.15;96.38;100811.84;5246329;56;21129;-81
2021/09/23 05:33:12;;;;;;;18.73;5.20;;;;;;;11.18;96.68;100799.20;5246232;56;21171;-81
2021/09/23 05:38:18;;;;;;;15.03;4.07;;;;;;;11.21;96.94;100799.45;5187592;56;21132;-80
2021/09/23 05:43:24;;;;;;;26.57;5.30;;;;;;;11.25;97.33;100792.49;5186998;57;21125;-81
2021/09/23 05:48:30;;;;;;;16.20;6.83;;;;;;;11.29;97.18;100791.78;5186732;57;21206;-80
2021/09/23 05:53:35;;;;;;;13.00;4.87;;;;;;;11.37;97.24;100796.48;5186649;57;21174;-81
2021/09/23 05:58:41;;;;;;;18.17;4.80;;;;;;;11.42;97.57;100796.98;5186729;56;21176;-80
2021/09/23 06:03:47;;;;;;;17.37;5.37;;;;;;;11.47;97.58;100796.97;5186559;57;21577;-80
2021/09/23 06:08:53;;;;;;;16.20;6.10;;;;;;;11.54;97.70;100796.03;5186606;56;21744;-81
2021/09/23 06:13:59;;;;;;;8.40;4.63;;;;;;;11.61;97.80;100784.83;5186075;57;21179;-80
2021/09/23 06:19:04;;;;;;;21.50;5.87;;;;;;;11.64;98.46;100776.65;5185613;57;21512;-81
2021/09/23 06:24:10;;;;;;;15.37;5.37;;;;;;;11.67;98.38;100770.27;5185036;57;21184;-80
2021/09/23 06:29:17;;;;;;;14.83;6.13;;;;;;;11.71;98.95;100764.26;5177809;57;21479;-81
2021/09/23 06:34:24;;;;;;;8.10;4.40;;;;;;;11.72;99.35;100755.34;5178523;57;21230;-79
2021/09/23 06:39:31;;;;;;;19.60;6.73;;;;;;;11.79;99.56;100757.41;5182182;57;21199;-82
2021/09/23 06:44:36;;;;;;;20.37;8.17;;;;;;;11.84;99.25;100745.98;5181957;57;21198;-81
2021/09/23 06:49:43;;;;;;;27.97;8.67;;;;;;;11.89;99.98;100739.84;5181891;57;21171;-80
2021/09/23 06:54:49;;;;;;;15.47;7.23;;;;;;;12.03;100.00;100749.82;5182154;57;21183;-79
2021/09/23 06:59:55;;;;;;;21.67;7.53;;;;;;;12.13;99.76;100735.70;5182223;57;21191;-81
2021/09/23 07:05:02;;;;;;;19.83;9.37;;;;;;;12.21;100.00;100724.48;5180466;57;21120;-82
2021/09/23 07:10:09;;;;;;;16.27;9.13;;;;;;;12.28;99.60;100720.35;5180680;57;21214;-82
2021/09/23 07:15:15;;;;;;;18.50;8.90;;;;;;;12.32;99.31;100716.00;5178160;57;21128;-83
2021/09/23 07:20:20;;;;;;;22.27;10.37;;;;;;;12.35;99.42;100720.70;5180953;56;21665;-82
2021/09/23 07:25:27;;;;;;;23.23;9.47;;;;;;;12.40;99.34;100721.15;5186579;56;21181;-83
2021/09/23 07:30:32;;;;;;;19.10;9.03;;;;;;;12.41;99.51;100718.37;5213261;56;21177;-82
2021/09/23 07:35:39;;;;;;;16.77;9.47;;;;;;;12.44;99.30;100714.16;5143962;56;21187;-82
2021/09/23 07:40:45;;;;;;;24.57;10.67;;;;;;;12.49;99.21;100719.09;5061725;58;22611;-82
2021/09/23 07:45:51;;;;;;;18.10;10.63;;;;;;;12.51;99.36;100736.57;5061033;58;21268;-83
2021/09/23 07:50:59;;;;;;;18.57;8.37;;;;;;;12.52;99.14;100714.38;5060157;58;21192;-83
2021/09/23 07:56:05;;;;;;;21.57;11.27;;;;;;;12.59;100.00;100708.06;5061162;58;21740;-83
2021/09/23 08:01:11;;;;;;;23.17;11.57;;;;;;;12.66;99.52;100711.42;4978615;59;21202;-82
2021/09/23 08:06:17;;;;;;;23.73;11.50;;;;;;;12.70;99.59;100706.67;5062046;58;21128;-82
2021/09/23 08:11:22;;;;;;;23.00;13.57;;;;;;;12.71;99.60;100683.16;5167093;56;21196;-83
2021/09/23 08:16:30;;;;;;;25.57;13.90;;;;;;;12.71;99.56;100662.41;5173514;56;21146;-82
2021/09/23 08:21:38;;;;;;;19.97;11.63;;;;;;;12.73;99.96;100655.16;5165330;56;21144;-82
2021/09/23 08:26:43;;;;;;;18.47;10.63;;;;;;;12.81;100.00;100652.72;5173901;56;21097;-84
2021/09/23 08:31:50;;;;;;;24.17;14.07;;;;;;;12.89;100.00;100647.09;5170173;56;21153;-82
2021/09/23 08:36:55;;;;;;;25.43;13.27;;;;;;;12.93;99.88;100642.38;5172958;56;21160;-83
2021/09/23 08:42:01;;;;;;;25.37;14.00;;;;;;;12.95;99.73;100631.98;5143663;56;21164;-82
2021/09/23 08:47:07;;;;;;;25.43;14.53;;;;;;;13.01;99.51;100639.89;5171763;56;21954;-82
2021/09/23 08:52:13;;;;;;;28.47;15.73;;;;;;;13.03;99.67;100632.16;5172500;56;21167;-82
2021/09/23 08:57:19;;;;;;;35.77;15.40;;;;;;;13.10;99.47;100626.33;5172784;56;21120;-82
2021/09/23 09:02:29;;;;;;;25.20;15.53;;;;;;;13.14;99.31;100603.34;5171024;56;21140;-82
2021/09/23 09:07:46;;;;;;;35.27;17.10;;;;;;;13.17;99.07;100588.98;5172719;56;21133;-83
2021/09/23 09:13:12;;;;;;;39.00;17.70;;;;;;;13.22;99.05;100570.84;5172265;56;21147;-82
2021/09/23 09:18:22;;;;;;;39.80;18.13;;;;;;;13.26;99.26;100553.67;5170269;56;21159;-82
2021/09/23 09:23:51;;;;;;;36.10;17.43;;;;;;;13.30;99.17;100549.27;5142046;56;21081;-82
2021/09/23 09:29:02;;;;;;;35.70;19.10;;;;;;;13.41;99.08;100539.52;5020181;58;21192;-83
2021/09/23 09:34:07;;;;;;;30.23;16.17;;;;;;;13.51;98.75;100529.73;5067338;57;21157;-82
2021/09/23 09:39:23;;;;;;;38.85;17.52;;;;;;;13.56;98.23;100514.23;5066876;57;21665;-81
2021/09/23 09:44:30;;;;;;;27.07;15.13;;;;;;;13.62;98.04;100504.36;4991647;58;21681;-83
2021/09/23 09:49:36;;;;;;;32.40;17.63;;;;;;;13.69;98.04;100498.36;5153129;56;22029;-82
2021/09/23 09:54:42;;;;;;;28.67;15.70;;;;;;;13.79;97.66;100489.05;5170537;56;21204;-82
2021/09/23 09:59:48;;;;;;;29.50;16.37;;;;;;;13.85;97.32;100464.58;5168953;56;22118;-82
2021/09/23 10:04:58;;;;;;;26.77;14.73;;;;;;;13.93;97.05;100434.12;5170486;56;21693;-83
2021/09/23 10:10:04;;;;;;;24.80;14.47;;;;;;;14.03;96.86;100468.69;5176154;56;21141;-83
2021/09/23 10:15:15;;;;;;;35.20;17.33;;;;;;;14.05;96.31;100471.52;5171852;56;21179;-82
2021/09/23 10:20:24;;;;;;;28.43;17.03;;;;;;;14.05;95.76;100463.55;5169529;56;21163;-82
2021/09/23 10:25:35;;;;;;;30.83;17.83;;;;;;;14.09;95.40;100421.56;5174494;56;22067;-82
2021/09/23 10:30:44;;;;;;;35.93;18.20;;;;;;;14.14;95.25;100410.50;5196515;56;21187;-82
2021/09/23 10:35:55;;;;;;;28.03;15.90;;;;;;;14.17;95.20;100425.69;5203480;56;21155;-82
2021/09/23 10:41:05;;;;;;;28.57;15.70;;;;;;;14.25;94.71;100393.86;5158075;55;21222;-83
2021/09/23 10:46:13;;;;;;;28.60;18.97;;;;;;;14.37;93.44;100391.84;5204413;56;21632;-82
2021/09/23 10:51:22;;;;;;;21.73;14.30;;;;;;;14.54;93.96;100380.95;5200540;56;21448;-82
2021/09/23 10:56:29;;;;;;;32.33;17.17;;;;;;;14.74;91.50;100378.05;5200856;56;21092;-83
2021/09/23 11:01:37;;;;;;;35.47;19.10;;;;;;;14.82;90.12;100364.50;5200347;56;21145;-82
2021/09/23 11:06:43;;;;;;;28.97;18.67;;;;;;;14.88;89.96;100362.05;5207225;56;21444;-82
2021/09/23 11:11:55;;;;;;;30.87;17.23;;;;;;;14.93;89.52;100356.28;5200984;56;21199;-82
2021/09/23 11:17:02;;;;;;;26.97;17.07;;;;;;;14.95;89.26;100347.66;5202193;56;21664;-82
2021/09/23 11:22:09;;;;;;;24.80;14.43;;;;;;;14.99;87.86;100335.69;5159611;56;21211;-82
2021/09/23 11:27:16;;;;;;;26.03;15.73;;;;;;;15.03;87.62;100327.75;5201600;56;21160;-81
2021/09/23 11:32:23;;;;;;;29.63;15.10;;;;;;;15.04;87.15;100316.94;5213963;56;21160;-82
2021/09/23 11:37:33;;;;;;;27.90;15.37;;;;;;;15.09;87.15;100317.83;5216623;56;22123;-83
2021/09/23 11:42:43;;;;;;;26.47;15.70;;;;;;;15.11;86.48;100300.70;5218599;55;21135;-82
2021/09/23 11:47:59;;;;;;;28.23;15.07;;;;;;;15.13;86.51;100306.69;5118134;57;21608;-83
2021/09/23 11:53:12;;;;;;;32.70;18.50;;;;;;;15.16;85.89;100300.72;5029221;58;21569;-82
2021/09/23 11:58:18;;;;;;;27.67;17.10;;;;;;;15.19;86.69;100280.44;5067177;57;21176;-83
2021/09/23 12:03:26;;;;;;;25.07;15.37;;;;;;;15.22;86.31;100273.48;5067347;57;21216;-82
2021/09/23 12:08:32;;;;;;;33.03;19.90;;;;;;;15.20;84.30;100256.80;4991073;59;21181;-83
2021/09/23 12:13:46;;;;;;;28.77;16.50;;;;;;;15.24;83.93;100236.86;5106885;57;21176;-83
2021/09/23 12:18:54;;;;;;;27.93;14.00;;;;;;;15.26;84.57;100230.39;5067118;57;21642;-84
2021/09/23 12:24:01;;;;;;;26.53;17.17;;;;;;;15.34;83.41;100217.60;5063990;57;21762;-85
2021/09/23 12:29:24;;;;;;;24.80;15.73;;;;;;;15.38;83.28;100201.64;4975942;58;21177;-83
2021/09/23 12:34:34;;;;;;;28.90;15.23;;;;;;;15.40;82.52;100192.50;5171007;56;21129;-82
2021/09/23 12:39:47;;;;;;;25.50;16.23;;;;;;;15.46;82.13;100191.85;5172873;56;21153;-82
2021/09/23 12:45:07;;;;;;;26.03;14.97;;;;;;;15.53;81.28;100180.57;5173991;56;21133;-82
2021/09/23 12:50:15;;;;;;;28.67;15.30;;;;;;;15.58;80.84;100167.15;5170681;56;21180;-82
2021/09/23 12:55:33;;;;;;;17.40;9.77;;;;;;;15.63;81.20;100152.82;5172265;56;21652;-85
2021/09/23 13:00:40;;;;;;;19.87;12.23;;;;;;;15.68;80.25;100144.34;5178810;56;21204;-84
2021/09/23 13:05:49;;;;;;;20.93;12.73;;;;;;;15.75;81.18;100137.36;5143798;56;21496;-85
2021/09/23 13:11:13;;;;;;;22.73;13.50;;;;;;;15.76;79.27;100118.54;5174614;56;21152;-85
2021/09/23 13:16:40;;;;;;;21.50;13.30;;;;;;;15.78;80.58;100104.55;5213328;56;21237;-85
2021/09/23 13:21:50;;;;;;;22.23;11.63;;;;;;;15.80;79.37;100099.05;5221119;56;21547;-84
2021/09/23 13:26:57;;;;;;;17.97;11.70;;;;;;;15.82;79.79;100092.56;5221401;56;21203;-85
2021/09/23 13:32:03;;;;;;;18.47;11.90;;;;;;;15.85;78.46;100081.24;5252684;56;22122;-85
2021/09/23 13:37:09;;;;;;;19.77;9.97;;;;;;;15.91;79.59;100073.41;5266416;56;21191;-86
2021/09/23 13:42:17;;;;;;;19.73;11.87;;;;;;;16.00;79.26;100069.77;5265789;56;21191;-87
2021/09/23 13:47:28;;;;;;;20.23;11.77;;;;;;;16.05;79.63;100053.25;5256131;56;21515;-86
2021/09/23 13:52:35;;;;;;;16.23;8.80;;;;;;;16.10;79.26;100048.27;5266324;56;21511;-85
2021/09/23 13:57:43;;;;;;;19.13;10.30;;;;;;;16.13;78.61;100039.44;5266471;56;21171;-85
2021/09/23 14:02:50;;;;;;;21.10;11.43;;;;;;;16.15;78.99;100014.76;5266282;56;21190;-85
2021/09/23 14:07:58;;;;;;;17.30;10.17;;;;;;;16.18;79.12;100005.09;5264144;56;21216;-84
2021/09/23 14:13:04;;;;;;;17.70;10.37;;;;;;;16.17;79.44;100018.59;5259349;56;21187;-85
2021/09/23 14:18:11;;;;;;;17.70;8.40;;;;;;;16.17;78.82;100007.42;5255271;56;21610;-85
2021/09/23 14:23:17;;;;;;;13.10;8.20;;;;;;;16.18;78.75;99985.08;5256195;56;21187;-85
2021/09/23 14:28:24;;;;;;;12.67;7.40;;;;;;;16.18;78.88;99976.24;5156964;57;21128;-85
2021/09/23 14:33:31;;;;;;;19.00;9.40;;;;;;;16.22;78.82;99966.05;5050901;58;21125;-84
2021/09/23 14:38:37;;;;;;;10.10;6.27;;;;;;;16.21;78.79;99958.53;5100784;58;21141;-84
2021/09/23 14:43:45;;;;;;;18.87;8.30;;;;;;;16.22;78.31;99951.37;5100588;58;21222;-86
2021/09/23 14:48:50;;;;;;;17.90;10.03;;;;;;;16.23;77.80;99932.52;5101391;58;21519;-86
2021/09/23 14:53:56;;;;;;;5.97;4.67;;;;;;;16.21;77.98;99927.02;5101339;58;21988;-85
2021/09/23 14:59:02;;;;;;;14.30;7.43;;;;;;;16.21;77.94;99921.19;5100824;58;22419;-85
2021/09/23 15:04:08;;;;;;;20.33;9.83;;;;;;;16.19;78.34;99910.67;5100748;58;21568;-85
2021/09/23 15:09:14;;;;;;;13.60;7.90;;;;;;;16.17;78.28;99894.53;5100878;58;21196;-85
2021/09/23 15:14:20;;;;;;;15.67;6.07;;;;;;;16.17;78.69;99890.53;5100681;58;21220;-86
2021/09/23 15:19:27;;;;;;;11.10;4.80;;;;;;;16.14;78.92;99866.85;5100589;58;21208;-85
2021/09/23 15:24:32;;;;;;;19.63;7.77;;;;;;;16.11;79.20;99851.19;5089919;57;21808;-84
2021/09/23 15:29:38;;;;;;;20.00;7.17;;;;;;;16.10;79.41;99840.17;5073982;57;21180;-86
2021/09/23 15:34:44;;;;;;;7.17;5.27;;;;;;;16.10;79.35;99839.67;5072214;57;21645;-85
2021/09/23 15:39:50;;;;;;;9.70;5.87;;;;;;;16.11;79.42;99821.84;4935193;59;22146;-84
2021/09/23 15:44:56;;;;;;;17.83;5.30;;;;;;;16.12;79.52;99811.00;4899596;59;21174;-86
2021/09/23 15:50:01;;;;;;;7.43;4.63;;;;;;;16.14;79.44;99804.99;5073515;57;21614;-83
2021/09/23 15:55:08;;;;;;;9.60;7.03;;;;;;;16.14;78.76;99792.16;5071311;57;21196;-85
2021/09/23 16:00:16;;;;;;;20.87;12.53;;;;;;;16.18;78.75;99770.30;5073597;57;21156;-86
2021/09/23 16:05:24;;;;;;;142.33;97.40;;;;;;;16.23;78.84;99759.09;5073436;57;21161;-85
2021/09/23 16:10:30;;;;;;;9.47;6.00;;;;;;;16.22;78.21;99751.25;5071912;57;21151;-84
2021/09/23 16:15:36;;;;;;;10.63;4.43;;;;;;;16.25;78.67;99732.23;5072176;57;21431;-85
2021/09/23 16:20:43;;;;;;;42.07;13.80;;;;;;;16.25;78.31;99721.06;5073169;57;21200;-86
2021/09/23 16:25:49;;;;;;;19.27;8.13;;;;;;;16.27;78.76;99709.72;5072027;57;21125;-86
2021/09/23 16:30:54;;;;;;;87.20;43.50;;;;;;;16.27;78.71;99689.70;5075788;57;21113;-85
2021/09/23 16:36:00;;;;;;;25.07;11.03;;;;;;;16.26;78.77;99665.86;5075539;57;22239;-83
2021/09/23 16:41:07;;;;;;;18.83;8.70;;;;;;;16.28;78.51;99651.84;5073454;57;22177;-85
2021/09/23 16:46:13;;;;;;;19.73;8.77;;;;;;;16.30;78.44;99656.00;5073827;57;21121;-85
2021/09/23 16:51:20;;;;;;;18.50;6.17;;;;;;;16.30;78.53;99650.66;5074038;57;21509;-85
2021/09/23 16:56:26;;;;;;;9.50;6.40;;;;;;;16.30;78.51;99637.83;5076311;57;21181;-84
2021/09/23 17:01:32;;;;;;;9.30;6.20;;;;;;;16.31;78.88;99625.64;5074554;57;21163;-85
2021/09/23 17:06:39;;;;;;;24.67;13.73;;;;;;;16.29;78.96;99623.66;5072437;57;21222;-86
2021/09/23 17:11:45;;;;;;;28.40;11.67;;;;;;;16.27;79.33;99624.83;5072047;57;21220;-85
2021/09/23 17:16:50;;;;;;;8.87;4.97;;;;;;;16.27;79.32;99622.16;5070640;57;21815;-84
2021/09/23 17:21:56;;;;;;;153.57;42.90;;;;;;;16.28;79.02;99626.50;5074974;57;21163;-85
2021/09/23 17:27:02;;;;;;;61.33;17.60;;;;;;;16.25;79.19;99616.17;5070871;57;21217;-85
2021/09/23 17:32:08;;;;;;;53.80;18.07;;;;;;;16.27;78.79;99623.00;5068393;57;21177;-85
2021/09/23 17:37:14;;;;;;;39.93;12.30;;;;;;;16.30;78.84;99631.98;5174696;56;21149;-85
2021/09/23 17:42:20;;;;;;;53.93;16.70;;;;;;;16.29;78.92;99618.31;5172656;56;21650;-84
2021/09/23 17:47:26;;;;;;;61.47;19.47;;;;;;;16.28;79.01;99619.83;5185130;56;21140;-84
2021/09/23 17:52:32;;;;;;;29.33;12.80;;;;;;;16.27;79.34;99609.66;5221668;56;21144;-85
2021/09/23 17:57:38;;;;;;;135.70;86.37;;;;;;;16.24;79.64;99597.16;5221734;56;21153;-85
2021/09/23 18:02:45;;;;;;;26.17;23.53;;;;;;;16.18;79.86;99582.21;5221689;56;21153;-85
2021/09/23 18:07:50;;;;;;;15.17;6.70;;;;;;;16.14;80.19;99578.73;5221820;56;21160;-85
2021/09/23 18:12:56;;;;;;;19.43;8.47;;;;;;;16.09;81.36;99581.09;5221761;56;21141;-85
2021/09/23 18:18:07;;;;;;;9.63;5.60;;;;;;;15.98;82.58;99581.52;5221742;56;21141;-85
2021/09/23 18:23:13;;;;;;;23.13;10.80;;;;;;;15.75;85.00;99575.63;5228337;56;21763;-85
2021/09/23 18:28:18;;;;;;;6.17;4.17;;;;;;;15.49;86.77;99569.74;5255051;56;21159;-85
2021/09/23 18:33:25;;;;;;;9.00;4.37;;;;;;;15.26;89.11;99583.00;5263846;56;21147;-85
2021/09/23 18:38:30;;;;;;;15.93;8.67;;;;;;;15.03;91.18;99574.90;5353941;55;21603;-84
2021/09/23 18:43:36;;;;;;;14.43;5.50;;;;;;;14.90;92.39;99565.78;5387001;55;21109;-84
2021/09/23 18:48:42;;;;;;;14.60;6.03;;;;;;;14.76;93.58;99511.41;5386854;54;21144;-85
2021/09/23 18:53:48;;;;;;;8.57;5.47;;;;;;;14.71;94.28;99495.11;5387098;54;21203;-85
2021/09/23 18:58:54;;;;;;;8.47;4.73;;;;;;;14.71;93.35;99489.80;5386753;55;21140;-85
2021/09/23 19:04:00;;;;;;;15.50;6.13;;;;;;;14.66;94.37;99479.68;5386701;54;21086;-84
2021/09/23 19:09:05;;;;;;;24.97;11.37;;;;;;;14.67;94.40;99474.66;5376286;55;21081;-85
2021/09/23 19:14:11;;;;;;;35.40;15.87;;;;;;;14.68;93.83;99464.34;5386814;54;21495;-85
2021/09/23 19:19:17;;;;;;;27.40;10.97;;;;;;;14.71;93.83;99456.02;5386713;55;21082;-85
2021/09/23 19:24:23;;;;;;;19.77;7.93;;;;;;;14.75;93.20;99453.36;5332768;55;21155;-85
2021/09/23 19:29:30;;;;;;;11.97;5.73;;;;;;;14.77;92.83;99442.04;5330547;55;21166;-84
2021/09/23 19:34:35;;;;;;;11.47;6.57;;;;;;;14.80;92.13;99436.87;5221815;57;21131;-86
2021/09/23 19:39:41;;;;;;;9.50;5.90;;;;;;;14.84;91.67;99451.48;5213597;57;21084;-84
2021/09/23 19:44:47;;;;;;;14.37;5.80;;;;;;;14.88;91.05;99420.03;5309282;55;22060;-84
2021/09/23 19:49:53;;;;;;;15.00;6.67;;;;;;;14.92;90.49;99414.69;5316047;55;22083;-84
2021/09/23 19:54:58;;;;;;;16.53;6.50;;;;;;;14.98;89.30;99393.51;5301739;55;21174;-85
2021/09/23 20:00:06;;;;;;;16.83;6.93;;;;;;;15.05;89.18;99398.48;5301610;55;21155;-83
2021/09/23 20:05:14;;;;;;;5.43;3.77;;;;;;;15.14;88.71;99394.75;5301133;56;21159;-86
2021/09/23 20:10:20;;;;;;;6.63;4.40;;;;;;;15.21;87.73;99396.22;5301699;56;21148;-84
2021/09/23 20:15:26;;;;;;;6.53;3.53;;;;;;;15.29;87.60;99390.00;5301563;56;21190;-83
2021/09/23 20:20:32;;;;;;;6.27;3.47;;;;;;;15.35;87.38;99405.29;5301759;56;22125;-84
2021/09/23 20:25:38;;;;;;;8.10;2.90;;;;;;;15.25;89.16;99409.52;5302103;56;21175;-84
2021/09/23 20:30:44;;;;;;;3.20;2.57;;;;;;;15.11;89.75;99411.11;5301674;55;21194;-84
2021/09/23 20:35:50;;;;;;;3.30;1.97;;;;;;;15.08;90.20;99430.09;5285514;56;21085;-84
2021/09/23 20:40:59;;;;;;;1.70;1.60;;;;;;;14.98;89.62;99441.94;5266279;56;21156;-84
2021/09/23 20:46:06;;;;;;;9.40;3.27;;;;;;;14.80;91.06;99443.53;5267602;55;21689;-83
2021/09/23 20:51:12;;;;;;;3.63;1.60;;;;;;;14.70;90.79;99439.72;5266170;56;22082;-84
2021/09/23 20:56:17;;;;;;;8.60;1.77;;;;;;;14.69;89.58;99451.87;5266309;56;21499;-84
2021/09/23 21:01:26;;;;;;;6.07;1.77;;;;;;;14.68;89.18;99442.22;5266352;56;21152;-84
2021/09/23 21:06:32;;;;;;;1.50;1.10;;;;;;;14.70;89.58;99413.11;5281305;55;21153;-83
2021/09/23 21:11:37;;;;;;;2.30;1.07;;;;;;;14.69;90.35;99458.02;5266889;56;21192;-85
2021/09/23 21:16:43;;;;;;;3.30;1.10;;;;;;;14.69;89.68;99411.45;5267055;55;21599;-84
2021/09/23 21:21:49;;;;;;;3.03;0.90;;;;;;;14.70;89.38;99402.46;5266997;56;21128;-85
2021/09/23 21:26:55;;;;;;;1.93;1.00;;;;;;;14.68;89.27;99414.28;5259669;56;21268;-84
2021/09/23 21:32:01;;;;;;;4.10;0.70;;;;;;;14.66;89.42;99436.27;5257303;56;21113;-84
2021/09/23 21:37:07;;;;;;;12.90;1.97;;;;;;;14.61;87.76;99445.25;5276865;56;22673;-85
2021/09/23 21:42:13;;;;;;;3.47;1.13;;;;;;;14.50;85.52;99466.91;5291596;56;21179;-83
2021/09/23 21:47:18;;;;;;;9.27;2.13;;;;;;;14.26;80.49;99470.39;5190827;57;21195;-82
2021/09/23 21:52:24;;;;;;;9.83;2.00;;;;;;;14.11;78.85;99493.34;5192202;56;21180;-83
2021/09/23 21:57:30;;;;;;;7.57;2.23;;;;;;;13.98;77.91;99501.32;5192608;57;21664;-83
2021/09/23 22:02:35;;;;;;;11.20;2.20;;;;;;;13.81;77.97;99492.16;5153448;57;21563;-83
2021/09/23 22:07:41;;;;;;;14.17;2.07;;;;;;;13.67;78.74;99502.95;5021506;59;21527;-84
2021/09/23 22:12:46;;;;;;;16.63;3.10;;;;;;;13.53;79.33;99506.23;5149475;57;21174;-82
2021/09/23 22:17:52;;;;;;;13.40;1.97;;;;;;;13.39;79.95;99518.32;5239640;56;21166;-83
2021/09/23 22:22:58;;;;;;;12.53;2.40;;;;;;;13.28;79.95;99549.16;5149478;57;21183;-84
2021/09/23 22:28:07;;;;;;;18.33;3.83;;;;;;;13.21;80.33;99557.41;5010037;58;21196;-82
2021/09/23 22:33:13;;;;;;;13.60;3.70;;;;;;;13.14;80.27;99555.05;4973123;59;21223;-85
2021/09/23 22:38:19;;;;;;;16.77;3.80;;;;;;;13.03;80.48;99553.48;4952585;58;21228;-83
2021/09/23 22:43:25;;;;;;;11.60;2.83;;;;;;;12.96;80.38;99563.08;4942480;60;21204;-84
2021/09/23 22:48:31;;;;;;;16.33;4.40;;;;;;;12.87;80.28;99567.48;4942146;60;21434;-84
2021/09/23 22:53:36;;;;;;;16.07;2.43;;;;;;;12.78;79.06;99564.95;4969890;59;21200;-83
2021/09/23 22:58:42;;;;;;;21.60;2.97;;;;;;;12.73;78.38;99568.06;5021080;59;21244;-84
2021/09/23 23:03:48;;;;;;;26.10;4.20;;;;;;;12.66;77.91;99575.83;5021299;59;21196;-82
2021/09/23 23:08:54;;;;;;;18.57;3.03;;;;;;;12.60;77.81;99590.20;5020393;59;21224;-84
2021/09/23 23:14:00;;;;;;;16.63;3.47;;;;;;;12.55;77.11;99585.84;5019897;59;22350;-85
2021/09/23 23:19:05;;;;;;;30.93;3.67;;;;;;;12.50;76.01;99586.32;5020823;59;21192;-85
2021/09/23 23:24:11;;;;;;;19.00;3.53;;;;;;;12.48;76.09;99590.94;5021366;59;22458;-83
2021/09/23 23:29:17;;;;;;;29.00;4.23;;;;;;;12.49;75.29;99585.14;5020081;59;21183;-85
2021/09/23 23:34:23;;;;;;;22.57;3.50;;;;;;;12.48;74.99;99586.96;5013864;59;21213;-84